Time;durP1;ratioP1;P1;durP2;ratioP2;P2;SDS_P1;SDS_P2;PMS_P1;PMS_P2;Temp;Humidity;BMP_temperature;BMP_pressure;BME280_temperature;BME280_humidity;BME280_pressure;Samples;Min_cycle;Max_cycle;Signal;HPM_P1;HPM_P2
2022/01/05 00:02:07;;;;;;;9.70;9.40;;;3.70;99.90;;;;;;5084113;28;20257;-80
2022/01/05 00:07:23;;;;;;;9.20;8.90;;;3.70;99.90;;;;;;5063475;28;20243;-80
2022/01/05 00:09:53;;;;;;;9.20;8.90;;;3.70;99.90;;;;;;5068936;28;20223;-80
2022/01/05 00:12:22;;;;;;;9.27;8.97;;;3.70;99.90;;;;;;5065296;28;20254;-80
2022/01/05 00:14:51;;;;;;;9.60;9.30;;;3.70;99.90;;;;;;5068535;28;20273;-80
2022/01/05 00:17:21;;;;;;;9.40;9.10;;;3.70;99.90;;;;;;5065178;28;20246;-80
2022/01/05 00:20:02;;;;;;;9.20;8.90;;;3.70;99.90;;;;;;5066999;28;20276;-80
2022/01/05 00:22:30;;;;;;;9.20;8.90;;;3.70;99.90;;;;;;5065804;28;20265;-79
2022/01/05 00:24:58;;;;;;;9.30;9.00;;;3.70;99.90;;;;;;5063060;28;20231;-80
2022/01/05 00:27:27;;;;;;;9.27;8.97;;;3.70;99.90;;;;;;5064333;28;20230;-81
2022/01/05 00:29:58;;;;;;;9.23;8.93;;;3.70;99.90;;;;;;5063427;28;20207;-81
2022/01/05 00:32:27;;;;;;;9.10;8.80;;;3.70;99.90;;;;;;5063942;28;20238;-80
2022/01/05 00:34:59;;;;;;;9.30;9.00;;;3.70;99.90;;;;;;5063658;28;20925;-80
2022/01/05 00:37:26;;;;;;;9.50;9.20;;;3.70;99.90;;;;;;5062959;28;20326;-79
2022/01/05 00:39:55;;;;;;;9.30;9.00;;;3.70;99.90;;;;;;5064525;28;20265;-80
2022/01/05 00:42:24;;;;;;;9.30;9.00;;;3.70;99.90;;;;;;5065086;28;20231;-80
2022/01/05 00:44:54;;;;;;;9.37;9.07;;;3.70;99.90;;;;;;5078212;28;20308;-79
2022/01/05 00:47:24;;;;;;;9.00;8.70;;;3.70;99.90;;;;;;5078615;28;20217;-77
2022/01/05 00:49:53;;;;;;;9.40;9.10;;;3.70;99.90;;;;;;5079141;28;20206;-77
2022/01/05 00:55:09;;;;;;;9.30;9.00;;;3.70;99.90;;;;;;5076358;28;20298;-79
2022/01/05 00:57:39;;;;;;;9.10;8.80;;;3.70;99.90;;;;;;5067528;28;20257;-80
2022/01/05 01:00:08;;;;;;;9.13;8.83;;;3.70;99.90;;;;;;5065731;28;20231;-79
2022/01/05 01:02:37;;;;;;;9.00;8.70;;;3.70;99.90;;;;;;5065175;28;20231;-79
2022/01/05 01:05:07;;;;;;;8.70;8.50;;;3.70;99.90;;;;;;5064796;28;20234;-79
2022/01/05 01:07:39;;;;;;;8.60;8.40;;;3.70;99.90;;;;;;5063284;28;20234;-80
2022/01/05 01:10:08;;;;;;;8.93;8.63;;;3.70;99.90;;;;;;5063370;28;20255;-78
2022/01/05 01:12:35;;;;;;;9.00;8.70;;;3.70;99.90;;;;;;5063157;28;20234;-79
2022/01/05 01:15:05;;;;;;;8.97;8.67;;;3.70;99.90;;;;;;5063094;28;20243;-80
2022/01/05 01:17:34;;;;;;;8.70;8.50;;;3.70;99.90;;;;;;5062652;28;20305;-80
2022/01/05 01:20:03;;;;;;;8.60;8.40;;;3.70;99.90;;;;;;5062957;28;20218;-79
2022/01/05 01:22:34;;;;;;;8.70;8.50;;;3.70;99.90;;;;;;5062686;28;20242;-79
2022/01/05 01:25:08;;;;;;;8.80;8.50;;;3.70;99.90;;;;;;5063289;28;20268;-79
2022/01/05 01:27:37;;;;;;;8.97;8.67;;;3.70;99.90;;;;;;5063169;28;20218;-80
2022/01/05 01:30:13;;;;;;;8.90;8.60;;;3.80;99.90;;;;;;5064721;28;20203;-79
2022/01/05 01:32:42;;;;;;;8.80;8.60;;;3.80;99.90;;;;;;5071556;28;20220;-77
2022/01/05 01:35:11;;;;;;;8.80;8.60;;;3.80;99.90;;;;;;5068164;28;20238;-79
2022/01/05 01:37:40;;;;;;;8.70;8.50;;;3.80;99.90;;;;;;5063999;28;20238;-80
2022/01/05 01:40:16;;;;;;;8.93;8.63;;;3.80;99.90;;;;;;5063439;28;20280;-79
2022/01/05 01:42:48;;;;;;;8.60;8.40;;;3.80;99.90;;;;;;5063772;28;20234;-79
2022/01/05 01:45:17;;;;;;;8.70;8.50;;;3.80;99.90;;;;;;5063836;28;20289;-80
2022/01/05 01:47:47;;;;;;;8.70;8.50;;;3.80;99.90;;;;;;5063993;28;20239;-79
2022/01/05 01:50:16;;;;;;;8.47;8.27;;;3.80;99.90;;;;;;5065723;28;20215;-80
2022/01/05 01:52:46;;;;;;;8.23;8.03;;;3.80;99.90;;;;;;5078440;28;20230;-78
2022/01/05 01:55:21;;;;;;;8.50;8.30;;;3.80;99.90;;;;;;5078660;28;20257;-78
2022/01/05 01:57:54;;;;;;;8.47;8.27;;;3.80;99.90;;;;;;5077952;28;20226;-80
2022/01/05 02:00:23;;;;;;;8.60;8.40;;;3.80;99.90;;;;;;5061487;28;20231;-80
2022/01/05 02:02:52;;;;;;;8.60;8.40;;;3.90;99.90;;;;;;5061135;28;20235;-79
2022/01/05 02:05:21;;;;;;;8.67;8.47;;;3.90;99.90;;;;;;5061683;28;20257;-80
2022/01/05 02:07:51;;;;;;;8.77;8.57;;;3.90;99.90;;;;;;5060861;28;20238;-79
2022/01/05 02:10:24;;;;;;;8.80;8.60;;;4.00;99.90;;;;;;5061366;28;20276;-82
2022/01/05 02:12:51;;;;;;;8.77;8.57;;;4.00;99.90;;;;;;5066164;28;20230;-79
2022/01/05 02:15:20;;;;;;;8.77;8.57;;;4.00;99.90;;;;;;5065231;28;20238;-81
2022/01/05 02:17:54;;;;;;;8.87;8.63;;;4.00;99.90;;;;;;5065548;28;20230;-80
2022/01/05 02:20:27;;;;;;;8.67;8.47;;;4.00;99.90;;;;;;5065601;28;20270;-81
2022/01/05 02:25:44;;;;;;;8.80;8.60;;;4.10;99.90;;;;;;5066699;28;20226;-79
2022/01/05 02:28:13;;;;;;;8.93;8.63;;;4.10;99.90;;;;;;5063829;28;20238;-80
2022/01/05 02:30:42;;;;;;;8.90;8.60;;;4.10;99.90;;;;;;5065138;28;20231;-81
2022/01/05 02:33:12;;;;;;;9.00;8.70;;;4.10;99.90;;;;;;5064742;28;20222;-80
2022/01/05 02:35:41;;;;;;;8.90;8.60;;;4.10;99.90;;;;;;5064142;28;20257;-80
2022/01/05 02:38:20;;;;;;;8.73;8.53;;;4.10;99.90;;;;;;5064307;28;20246;-81
2022/01/05 02:40:49;;;;;;;9.07;8.77;;;4.20;99.90;;;;;;5064600;28;20219;-81
2022/01/05 02:43:18;;;;;;;8.93;8.63;;;4.20;99.90;;;;;;5064279;28;20239;-80
2022/01/05 02:45:48;;;;;;;9.10;8.80;;;4.20;99.90;;;;;;5063686;28;20313;-81
2022/01/05 02:48:17;;;;;;;9.03;8.73;;;4.30;99.90;;;;;;5064426;28;20268;-81
2022/01/05 02:50:47;;;;;;;9.00;8.70;;;4.30;99.90;;;;;;5063480;28;20245;-81
2022/01/05 02:53:19;;;;;;;9.30;9.00;;;4.30;99.90;;;;;;5064110;28;20273;-81
2022/01/05 02:55:47;;;;;;;9.27;8.97;;;4.40;99.90;;;;;;5063969;28;20269;-80
2022/01/05 02:58:15;;;;;;;9.23;8.93;;;4.40;99.90;;;;;;5063387;28;20322;-81
2022/01/05 03:00:44;;;;;;;9.00;8.70;;;4.40;99.90;;;;;;5063456;28;20281;-80
2022/01/05 03:03:14;;;;;;;9.03;8.73;;;4.40;99.90;;;;;;5063361;28;20237;-80
2022/01/05 03:05:44;;;;;;;9.00;8.70;;;4.40;99.90;;;;;;5063174;28;20231;-81
2022/01/05 03:08:14;;;;;;;9.00;8.70;;;4.50;99.90;;;;;;5062925;28;20281;-81
2022/01/05 03:10:51;;;;;;;9.00;8.70;;;4.50;99.90;;;;;;5063515;28;20223;-81
2022/01/05 03:13:23;;;;;;;9.17;8.87;;;4.50;99.90;;;;;;5064553;28;20226;-79
2022/01/05 03:15:51;;;;;;;9.10;8.80;;;4.50;99.90;;;;;;5077624;28;20246;-80
2022/01/05 03:18:20;;;;;;;9.00;8.70;;;4.50;99.90;;;;;;5068028;28;20278;-80
2022/01/05 03:20:49;;;;;;;8.90;8.60;;;4.50;99.90;;;;;;5064295;28;20216;-81
2022/01/05 03:23:19;;;;;;;9.07;8.77;;;4.50;99.90;;;;;;5062388;28;20239;-80
2022/01/05 03:25:56;;;;;;;8.97;8.67;;;4.50;99.90;;;;;;5063711;28;20238;-81
2022/01/05 03:28:30;;;;;;;8.97;8.67;;;4.50;99.90;;;;;;5062854;28;20288;-81
2022/01/05 03:30:57;;;;;;;8.90;8.60;;;4.60;99.90;;;;;;5063072;28;20223;-80
2022/01/05 03:33:27;;;;;;;9.00;8.70;;;4.60;99.90;;;;;;5063293;28;20227;-79
2022/01/05 03:35:56;;;;;;;9.20;8.90;;;4.60;99.90;;;;;;5063281;28;20246;-81
2022/01/05 03:38:28;;;;;;;9.27;8.97;;;4.60;99.90;;;;;;5063017;28;20288;-81
2022/01/05 03:41:04;;;;;;;9.30;9.00;;;4.60;99.90;;;;;;5063135;28;20215;-81
2022/01/05 03:43:34;;;;;;;9.13;8.83;;;4.60;99.90;;;;;;5063096;28;20230;-80
2022/01/05 03:46:03;;;;;;;9.20;8.90;;;4.70;99.90;;;;;;5062328;28;20250;-80
2022/01/05 03:48:32;;;;;;;8.80;8.60;;;4.70;99.90;;;;;;5062760;28;20249;-81
2022/01/05 03:51:01;;;;;;;9.20;8.90;;;4.70;99.90;;;;;;5063027;28;20218;-80
2022/01/05 03:53:31;;;;;;;9.07;8.77;;;4.70;99.90;;;;;;5071605;28;20343;-79
2022/01/05 03:58:49;;;;;;;9.17;8.87;;;4.70;99.90;;;;;;5063687;28;20258;-81
2022/01/05 04:01:16;;;;;;;8.80;8.60;;;4.70;99.90;;;;;;5063631;28;20219;-81
2022/01/05 04:03:46;;;;;;;8.70;8.50;;;4.70;99.90;;;;;;5062557;28;20235;-80
2022/01/05 04:06:15;;;;;;;8.73;8.53;;;4.70;99.90;;;;;;5062942;28;20293;-80
2022/01/05 04:08:45;;;;;;;8.80;8.60;;;4.70;99.90;;;;;;5061850;28;20223;-81
2022/01/05 04:11:17;;;;;;;9.00;8.70;;;4.70;99.90;;;;;;5062466;28;20227;-80
2022/01/05 04:13:44;;;;;;;8.70;8.50;;;4.70;99.90;;;;;;5061353;28;20293;-80
2022/01/05 04:16:14;;;;;;;9.00;8.70;;;4.80;99.90;;;;;;5062187;28;20281;-80
2022/01/05 04:18:43;;;;;;;8.80;8.60;;;4.80;99.90;;;;;;5062561;28;20242;-80
2022/01/05 04:21:12;;;;;;;8.53;8.33;;;4.80;99.90;;;;;;5062150;28;20246;-80
2022/01/05 04:23:41;;;;;;;8.63;8.43;;;4.90;99.90;;;;;;5062016;28;20274;-80
2022/01/05 04:26:12;;;;;;;8.93;8.67;;;4.90;99.90;;;;;;5061828;28;20288;-81
2022/01/05 04:28:44;;;;;;;9.07;8.77;;;4.90;99.90;;;;;;5062191;28;20230;-80
2022/01/05 04:31:11;;;;;;;8.77;8.57;;;5.00;99.90;;;;;;5062419;28;20234;-80
2022/01/05 04:33:39;;;;;;;8.73;8.53;;;5.00;99.90;;;;;;5061694;28;20297;-81
2022/01/05 04:36:09;;;;;;;8.70;8.50;;;5.00;99.90;;;;;;5062009;28;20245;-81
2022/01/05 04:38:38;;;;;;;8.53;8.33;;;5.00;99.90;;;;;;5070192;28;20271;-78
2022/01/05 04:41:08;;;;;;;8.60;8.40;;;5.00;99.90;;;;;;5080018;28;20215;-78
2022/01/05 04:43:37;;;;;;;8.60;8.40;;;5.00;99.90;;;;;;5078100;28;20261;-80
2022/01/05 04:48:54;;;;;;;8.33;8.13;;;5.10;99.90;;;;;;5066194;28;20296;-80
2022/01/05 04:51:23;;;;;;;8.40;8.20;;;5.10;99.90;;;;;;5068271;28;20226;-80
2022/01/05 04:53:52;;;;;;;8.30;8.10;;;5.20;99.90;;;;;;5068067;28;20230;-80
2022/01/05 04:56:22;;;;;;;8.30;8.10;;;5.20;99.90;;;;;;5062951;28;20306;-80
2022/01/05 04:58:51;;;;;;;8.60;8.40;;;5.20;99.90;;;;;;5063012;28;20235;-80
2022/01/05 05:01:33;;;;;;;8.70;8.50;;;5.20;99.90;;;;;;5063880;28;20278;-80
2022/01/05 05:04:01;;;;;;;8.80;8.60;;;5.20;99.90;;;;;;5062890;28;20235;-80
2022/01/05 05:06:28;;;;;;;8.70;8.50;;;5.20;99.90;;;;;;5061972;28;20756;-79
2022/01/05 05:08:58;;;;;;;8.60;8.40;;;5.20;99.90;;;;;;5062915;28;20242;-80
2022/01/05 05:11:27;;;;;;;8.50;8.30;;;5.20;99.90;;;;;;5078339;28;20226;-80
2022/01/05 05:13:57;;;;;;;8.50;8.30;;;5.20;99.90;;;;;;5074089;28;20276;-80
2022/01/05 05:19:13;;;;;;;8.47;8.27;;;5.20;99.90;;;;;;5080740;28;20222;-79
2022/01/05 05:21:43;;;;;;;9.27;8.97;;;5.20;99.90;;;;;;5083157;28;20226;-79
2022/01/05 05:24:13;;;;;;;8.93;8.63;;;5.20;99.90;;;;;;5083509;28;20230;-80
2022/01/05 05:26:43;;;;;;;9.10;8.80;;;5.20;99.90;;;;;;5085470;28;20238;-79
2022/01/05 05:29:13;;;;;;;9.10;8.80;;;5.10;99.90;;;;;;5084175;28;20256;-79
2022/01/05 05:31:51;;;;;;;9.33;9.03;;;5.10;99.90;;;;;;5083110;28;20234;-80
2022/01/05 05:34:20;;;;;;;8.70;8.50;;;5.10;99.90;;;;;;5088580;28;20237;-78
2022/01/05 05:36:50;;;;;;;8.50;8.30;;;5.10;99.90;;;;;;5082771;28;20716;-79
2022/01/05 05:39:19;;;;;;;8.80;8.60;;;5.10;99.90;;;;;;5083766;28;20229;-79
2022/01/05 05:41:49;;;;;;;8.80;8.60;;;5.10;99.90;;;;;;5085746;28;20358;-79
2022/01/05 05:44:18;;;;;;;8.63;8.43;;;5.10;99.90;;;;;;5094307;28;20240;-80
2022/01/05 05:46:47;;;;;;;8.73;8.53;;;5.10;99.90;;;;;;5104669;22;20235;-83
2022/01/05 05:49:16;;;;;;;8.67;8.47;;;5.10;99.90;;;;;;5057856;28;20273;-82
2022/01/05 05:51:44;;;;;;;8.70;8.50;;;5.10;99.90;;;;;;5050651;28;20282;-83
2022/01/05 05:54:12;;;;;;;8.60;8.40;;;5.10;99.90;;;;;;5041138;28;20275;-82
2022/01/05 05:56:39;;;;;;;8.50;8.30;;;5.10;99.90;;;;;;5040038;28;20246;-82
2022/01/05 05:59:07;;;;;;;8.50;8.30;;;5.10;99.90;;;;;;5039602;28;20265;-83
2022/01/05 06:01:35;;;;;;;8.47;8.27;;;5.10;99.90;;;;;;5039681;28;20235;-83
2022/01/05 06:04:05;;;;;;;8.47;8.27;;;5.20;99.90;;;;;;5039372;28;20231;-82
2022/01/05 06:06:33;;;;;;;8.80;8.60;;;5.20;99.90;;;;;;5047128;28;20309;-82
2022/01/05 06:09:01;;;;;;;8.70;8.50;;;5.20;99.90;;;;;;5052042;28;20254;-82
2022/01/05 06:11:30;;;;;;;8.50;8.30;;;5.20;99.90;;;;;;5050356;28;20215;-83
2022/01/05 06:13:57;;;;;;;8.77;8.57;;;5.20;99.90;;;;;;5040025;28;20238;-83
2022/01/05 06:16:25;;;;;;;8.80;8.60;;;5.20;99.90;;;;;;5038485;28;20235;-82
2022/01/05 06:18:53;;;;;;;8.60;8.40;;;5.20;99.90;;;;;;5038785;28;20301;-83
2022/01/05 06:21:22;;;;;;;8.43;8.23;;;5.20;99.90;;;;;;5037780;28;20227;-82
2022/01/05 06:23:51;;;;;;;8.70;8.50;;;5.20;99.90;;;;;;5037706;28;20239;-82
2022/01/05 06:26:20;;;;;;;8.87;8.67;;;5.30;99.90;;;;;;5038073;28;20242;-82
2022/01/05 06:28:48;;;;;;;8.80;8.60;;;5.30;99.90;;;;;;5038505;28;20230;-82
2022/01/05 06:31:17;;;;;;;8.73;8.53;;;5.20;99.90;;;;;;5044420;28;20234;-81
2022/01/05 06:33:46;;;;;;;9.20;8.90;;;5.20;99.90;;;;;;5045284;28;20244;-82
2022/01/05 06:36:14;;;;;;;9.17;8.87;;;5.00;99.90;;;;;;5041523;28;20390;-82
2022/01/05 06:38:44;;;;;;;9.10;8.80;;;4.90;99.90;;;;;;5041402;28;20234;-83
2022/01/05 06:41:11;;;;;;;9.13;8.83;;;4.70;99.90;;;;;;5041068;28;20232;-81
2022/01/05 06:43:39;;;;;;;9.20;8.90;;;4.50;99.90;;;;;;5041738;28;20291;-82
2022/01/05 06:46:08;;;;;;;8.80;8.60;;;4.30;99.90;;;;;;5041130;28;20235;-82
2022/01/05 06:48:36;;;;;;;9.00;8.70;;;4.00;99.90;;;;;;5041229;28;20247;-82
2022/01/05 06:51:07;;;;;;;8.73;8.53;;;3.90;99.90;;;;;;5040958;28;20299;-82
2022/01/05 06:53:35;;;;;;;9.30;9.00;;;3.70;99.90;;;;;;5040409;28;20228;-83
2022/01/05 06:56:06;;;;;;;8.70;8.50;;;3.60;99.90;;;;;;5039766;28;20228;-82
2022/01/05 06:58:34;;;;;;;9.07;8.80;;;3.60;99.90;;;;;;5041634;28;20262;-83
2022/01/05 07:01:03;;;;;;;9.57;9.27;;;3.50;99.90;;;;;;5042728;28;20231;-82
2022/01/05 07:03:33;;;;;;;9.03;8.77;;;3.40;99.90;;;;;;5042363;28;20289;-83
2022/01/05 07:06:02;;;;;;;8.80;8.60;;;3.30;99.90;;;;;;5043440;28;20220;-83
2022/01/05 07:08:31;;;;;;;9.70;9.40;;;3.20;99.90;;;;;;5049544;28;20238;-83
2022/01/05 07:10:59;;;;;;;9.47;9.17;;;3.10;99.90;;;;;;5039868;28;20290;-83
2022/01/05 07:13:29;;;;;;;9.50;9.20;;;3.00;99.90;;;;;;5039527;28;20251;-82
2022/01/05 07:15:56;;;;;;;9.70;9.40;;;3.00;99.90;;;;;;5041184;28;20235;-84
2022/01/05 07:18:24;;;;;;;9.60;9.30;;;3.00;99.90;;;;;;5041301;28;20243;-83
2022/01/05 07:20:52;;;;;;;9.50;9.20;;;3.00;99.90;;;;;;5041125;28;20289;-83
2022/01/05 07:23:21;;;;;;;9.93;9.63;;;2.90;99.90;;;;;;5042734;28;20235;-82
2022/01/05 07:25:51;;;;;;;10.00;9.70;;;2.90;99.90;;;;;;5041422;28;20298;-83
2022/01/05 07:28:22;;;;;;;10.00;9.70;;;2.80;99.90;;;;;;5041649;28;20246;-82
2022/01/05 07:30:53;;;;;;;9.90;9.60;;;2.80;99.90;;;;;;5053164;28;20243;-79
2022/01/05 07:33:21;;;;;;;9.90;9.60;;;2.70;99.90;;;;;;5052402;28;20232;-82
2022/01/05 07:35:49;;;;;;;9.87;9.57;;;2.70;99.90;;;;;;5043920;28;20243;-83
2022/01/05 07:38:18;;;;;;;10.50;10.20;;;2.70;99.90;;;;;;5042945;28;20235;-80
2022/01/05 07:40:46;;;;;;;10.23;9.93;;;2.60;99.90;;;;;;5041829;28;20289;-82
2022/01/05 07:43:17;;;;;;;10.40;10.10;;;2.60;99.90;;;;;;5041094;28;20231;-82
2022/01/05 07:45:45;;;;;;;10.20;9.90;;;2.70;99.90;;;;;;5040706;28;20255;-83
2022/01/05 07:48:18;;;;;;;10.20;9.90;;;2.70;99.90;;;;;;5043817;28;20235;-82
2022/01/05 07:50:46;;;;;;;9.80;9.50;;;2.60;99.90;;;;;;5042213;28;20238;-81
2022/01/05 07:53:14;;;;;;;9.90;9.60;;;2.60;99.90;;;;;;5041981;28;20235;-82
2022/01/05 07:55:44;;;;;;;9.83;9.53;;;2.60;99.90;;;;;;5042310;28;20247;-83
2022/01/05 07:58:12;;;;;;;9.97;9.67;;;2.60;99.90;;;;;;5042750;28;20232;-83
2022/01/05 08:00:41;;;;;;;10.00;9.70;;;2.60;99.90;;;;;;5042584;28;20282;-82
2022/01/05 08:03:09;;;;;;;9.70;9.40;;;2.60;99.90;;;;;;5041810;28;20227;-83
2022/01/05 08:05:39;;;;;;;9.63;9.33;;;2.60;99.90;;;;;;5040843;28;20231;-82
2022/01/05 08:08:06;;;;;;;9.77;9.47;;;2.60;99.90;;;;;;5047344;28;20224;-82
2022/01/05 08:10:34;;;;;;;9.73;9.43;;;2.60;99.90;;;;;;5040962;28;20290;-82
2022/01/05 08:13:02;;;;;;;9.73;9.43;;;2.60;99.90;;;;;;5040864;28;20293;-82
2022/01/05 08:15:30;;;;;;;9.80;9.50;;;2.70;99.90;;;;;;5041865;28;20239;-82
2022/01/05 08:17:58;;;;;;;9.93;9.63;;;2.60;99.90;;;;;;5041634;28;20306;-83
2022/01/05 08:20:26;;;;;;;9.93;9.63;;;2.60;99.90;;;;;;5042283;28;20298;-82
2022/01/05 08:22:55;;;;;;;10.00;9.70;;;2.60;99.90;;;;;;5042866;28;20232;-82
2022/01/05 08:25:23;;;;;;;9.40;9.10;;;2.60;99.90;;;;;;5042422;28;20231;-83
2022/01/05 08:27:51;;;;;;;9.50;9.20;;;2.60;99.90;;;;;;5045110;28;20229;-83
2022/01/05 08:30:22;;;;;;;9.53;9.23;;;2.60;99.90;;;;;;5043346;28;20236;-83
2022/01/05 08:32:52;;;;;;;9.50;9.20;;;2.60;99.90;;;;;;5054893;28;20293;-83
2022/01/05 08:35:22;;;;;;;9.63;9.33;;;2.60;99.90;;;;;;5058928;28;20227;-82
2022/01/05 08:37:50;;;;;;;9.33;9.03;;;2.60;99.90;;;;;;5053882;28;20208;-81
2022/01/05 08:40:23;;;;;;;9.20;8.90;;;2.50;99.90;;;;;;5049615;28;20232;-82
2022/01/05 08:42:52;;;;;;;9.40;9.10;;;2.50;99.90;;;;;;5046935;28;20262;-82
2022/01/05 08:45:22;;;;;;;9.70;9.40;;;2.50;99.90;;;;;;5046435;28;20339;-84
2022/01/05 08:47:52;;;;;;;9.50;9.20;;;2.60;99.90;;;;;;5045644;28;20236;-82
2022/01/05 08:50:24;;;;;;;9.70;9.40;;;2.60;99.90;;;;;;5045020;28;20216;-83
2022/01/05 08:52:53;;;;;;;9.93;9.63;;;2.60;99.90;;;;;;5044382;28;20227;-82
2022/01/05 08:55:25;;;;;;;9.50;9.20;;;2.70;99.90;;;;;;5042629;28;20235;-82
2022/01/05 08:58:00;;;;;;;9.50;9.20;;;2.60;99.90;;;;;;5042188;28;20232;-90
2022/01/05 09:00:30;;;;;;;9.40;9.10;;;2.70;99.90;;;;;;5050782;28;20207;-83
2022/01/05 09:03:00;;;;;;;9.40;9.10;;;2.70;99.90;;;;;;5050699;28;20323;-87
2022/01/05 09:05:30;;;;;;;8.80;8.60;;;2.70;99.90;;;;;;5050943;28;20287;-84
2022/01/05 09:07:59;;;;;;;8.80;8.60;;;2.60;99.90;;;;;;5049432;28;20258;-83
2022/01/05 09:10:33;;;;;;;8.97;8.77;;;2.60;99.90;;;;;;5051344;28;20231;-82
2022/01/05 09:13:01;;;;;;;9.30;9.00;;;2.50;99.90;;;;;;5053294;28;20239;-82
2022/01/05 09:15:33;;;;;;;9.20;8.90;;;2.60;99.90;;;;;;5046389;28;20243;-81
2022/01/05 09:18:01;;;;;;;9.13;8.83;;;2.50;99.90;;;;;;5044032;28;20726;-81
2022/01/05 09:20:29;;;;;;;9.20;8.90;;;2.50;99.90;;;;;;5042584;28;20231;-82
2022/01/05 09:22:57;;;;;;;9.53;9.23;;;2.50;99.90;;;;;;5047890;28;20339;-81
2022/01/05 09:25:27;;;;;;;9.50;9.20;;;2.40;99.90;;;;;;5044889;28;20258;-81
2022/01/05 09:27:55;;;;;;;9.40;9.10;;;2.50;99.90;;;;;;5044069;28;21018;-82
2022/01/05 09:30:26;;;;;;;9.37;9.07;;;2.50;99.90;;;;;;5042962;28;20227;-81
2022/01/05 09:32:53;;;;;;;9.17;8.87;;;2.40;99.90;;;;;;5045672;28;20231;-82
2022/01/05 09:35:24;;;;;;;8.90;8.70;;;2.40;99.90;;;;;;5044027;28;20231;-81
2022/01/05 09:38:07;;;;;;;8.77;8.57;;;2.30;99.90;;;;;;5042317;28;20259;-81
2022/01/05 09:43:22;;;;;;;9.37;9.07;;;2.20;99.90;;;;;;5044413;28;20215;-83
2022/01/05 09:46:07;;;;;;;8.80;8.60;;;2.20;99.90;;;;;;5052257;28;20231;-80
2022/01/05 09:49:09;;;;;;;8.70;8.50;;;2.20;99.90;;;;;;5059731;28;20291;-80
2022/01/05 09:51:42;;;;;;;8.70;8.50;;;2.20;99.90;;;;;;5059098;28;20207;-81
2022/01/05 09:54:13;;;;;;;8.60;8.40;;;2.30;99.90;;;;;;5058722;28;20236;-81
2022/01/05 09:56:44;;;;;;;8.50;8.30;;;2.40;99.90;;;;;;5059099;28;20240;-81
2022/01/05 09:59:12;;;;;;;8.90;8.70;;;2.50;99.90;;;;;;5059439;28;20283;-81
2022/01/05 10:01:40;;;;;;;8.50;8.30;;;2.50;99.90;;;;;;5059027;28;20208;-80
2022/01/05 10:04:10;;;;;;;8.40;8.20;;;2.50;99.90;;;;;;5059244;28;20221;-77
2022/01/05 10:06:38;;;;;;;8.07;7.87;;;2.70;99.90;;;;;;5058566;28;20278;-80
2022/01/05 10:09:07;;;;;;;8.33;8.13;;;2.90;99.90;;;;;;5057254;28;20227;-79
2022/01/05 10:11:36;;;;;;;8.77;8.57;;;3.00;99.90;;;;;;5056695;28;20251;-77
2022/01/05 10:14:09;;;;;;;8.30;8.10;;;3.10;99.90;;;;;;5051719;28;20262;-82
2022/01/05 10:16:37;;;;;;;8.27;8.07;;;3.10;99.90;;;;;;5048523;28;20242;-80
2022/01/05 10:19:05;;;;;;;8.43;8.23;;;3.30;99.90;;;;;;5049951;28;20231;-81
2022/01/05 10:21:38;;;;;;;8.60;8.40;;;3.40;99.90;;;;;;5048480;28;20319;-81
2022/01/05 10:24:07;;;;;;;9.30;9.00;;;3.40;99.90;;;;;;5047447;28;20283;-82
2022/01/05 10:26:39;;;;;;;9.20;8.90;;;3.50;99.90;;;;;;5047101;28;20239;-80
2022/01/05 10:29:15;;;;;;;8.87;8.67;;;3.60;99.90;;;;;;5045892;28;20220;-81
2022/01/05 10:31:45;;;;;;;8.80;8.60;;;3.60;99.90;;;;;;5045444;28;20242;-81
2022/01/05 10:34:19;;;;;;;8.40;8.20;;;3.80;99.90;;;;;;5047330;28;20231;-81
2022/01/05 10:36:49;;;;;;;8.77;8.57;;;3.90;99.90;;;;;;5046297;28;20239;-80
2022/01/05 10:39:20;;;;;;;9.00;8.80;;;3.90;99.90;;;;;;5045661;28;20239;-81
2022/01/05 10:41:48;;;;;;;8.70;8.50;;;3.80;99.90;;;;;;5045143;28;20226;-81
2022/01/05 10:44:21;;;;;;;8.80;8.60;;;3.50;99.90;;;;;;5053772;28;20567;-81
2022/01/05 10:46:51;;;;;;;8.80;8.60;;;3.30;99.90;;;;;;5059100;28;20247;-79
2022/01/05 10:49:29;;;;;;;8.60;8.40;;;3.10;99.90;;;;;;5059469;28;20282;-80
2022/01/05 10:51:58;;;;;;;8.53;8.33;;;3.00;99.90;;;;;;5060195;28;20204;-80
2022/01/05 10:54:29;;;;;;;8.93;8.73;;;3.10;99.90;;;;;;5059503;28;20537;-80
2022/01/05 10:57:09;;;;;;;9.20;8.90;;;3.30;99.90;;;;;;5059328;28;20235;-80
2022/01/05 10:59:42;;;;;;;9.20;8.90;;;3.50;99.90;;;;;;5059615;28;20232;-80
2022/01/05 11:02:30;;;;;;;8.73;8.53;;;3.70;99.90;;;;;;5058905;28;20219;-81
2022/01/05 11:05:14;;;;;;;8.47;8.27;;;3.70;99.90;;;;;;5057589;28;20239;-81
2022/01/05 11:07:46;;;;;;;8.80;8.60;;;3.60;99.90;;;;;;5056248;28;20243;-80
2022/01/05 11:10:18;;;;;;;8.77;8.57;;;3.40;99.90;;;;;;5057665;28;20251;-80
2022/01/05 11:12:51;;;;;;;8.43;8.23;;;3.40;99.90;;;;;;5049727;28;20242;-81
2022/01/05 11:15:27;;;;;;;8.90;8.70;;;3.50;99.90;;;;;;5049704;28;20352;-81
2022/01/05 11:18:17;;;;;;;9.50;9.20;;;3.50;99.90;;;;;;5054541;28;20223;-79
2022/01/05 11:20:49;;;;;;;9.10;8.80;;;3.50;99.90;;;;;;5046557;28;20256;-80
2022/01/05 11:23:18;;;;;;;9.10;8.80;;;3.30;99.90;;;;;;5044955;28;20211;-80
2022/01/05 11:25:47;;;;;;;9.30;9.00;;;3.10;99.90;;;;;;5044067;28;20266;-80
2022/01/05 11:28:16;;;;;;;9.20;8.90;;;3.20;99.90;;;;;;5045167;28;20232;-81
2022/01/05 11:30:49;;;;;;;8.73;8.53;;;3.40;99.90;;;;;;5045044;28;20240;-81
2022/01/05 11:33:17;;;;;;;9.10;8.80;;;3.30;99.90;;;;;;5044043;28;20250;-81
2022/01/05 11:35:45;;;;;;;9.20;8.90;;;3.20;99.90;;;;;;5045239;28;20240;-80
2022/01/05 11:38:14;;;;;;;9.60;9.30;;;3.00;99.90;;;;;;5046102;28;20242;-79
2022/01/05 11:40:48;;;;;;;9.60;9.30;;;2.70;99.90;;;;;;5046419;28;20351;-79
2022/01/05 11:43:23;;;;;;;9.40;9.10;;;2.60;99.90;;;;;;5044633;28;20228;-79
2022/01/05 11:48:40;;;;;;;9.27;8.97;;;2.60;99.90;;;;;;5063306;28;20262;-86
2022/01/05 11:51:08;;;;;;;9.20;8.90;;;2.50;99.90;;;;;;5065639;28;20226;-85
2022/01/05 11:53:46;;;;;;;9.20;8.90;;;2.50;99.90;;;;;;5060399;28;20223;-83
2022/01/05 11:56:17;;;;;;;9.50;9.20;;;2.60;99.90;;;;;;5054872;28;20262;-82
2022/01/05 11:59:02;;;;;;;9.67;9.37;;;3.00;99.90;;;;;;5056231;28;20253;-82
2022/01/05 12:01:41;;;;;;;9.40;9.10;;;3.30;99.90;;;;;;5064408;28;20223;-84
2022/01/05 12:04:20;;;;;;;9.20;8.90;;;3.40;99.90;;;;;;5062489;28;20231;-83
2022/01/05 12:07:15;;;;;;;9.50;9.20;;;3.50;99.90;;;;;;5065901;28;20238;-83
2022/01/05 12:09:52;;;;;;;9.30;9.00;;;3.50;99.90;;;;;;5067287;28;20243;-83
2022/01/05 12:12:32;;;;;;;9.20;8.90;;;3.80;99.90;;;;;;5059239;28;21019;-84
2022/01/05 12:15:01;;;;;;;9.40;9.10;;;4.10;99.90;;;;;;5046647;28;20230;-83
2022/01/05 12:17:30;;;;;;;9.63;9.33;;;4.20;99.90;;;;;;5048061;28;20234;-82
2022/01/05 12:20:16;;;;;;;9.37;9.07;;;4.40;99.90;;;;;;5065687;28;20231;-83
2022/01/05 12:22:45;;;;;;;9.50;9.20;;;4.20;99.90;;;;;;5065594;28;20219;-85
2022/01/05 12:25:23;;;;;;;9.40;9.10;;;3.90;99.90;;;;;;5064978;28;20231;-83
2022/01/05 12:28:02;;;;;;;9.40;9.10;;;3.80;99.90;;;;;;5064140;28;20289;-83
2022/01/05 12:30:41;;;;;;;9.33;9.03;;;3.70;99.90;;;;;;5064559;28;20317;-83
2022/01/05 12:33:18;;;;;;;9.10;8.80;;;3.50;99.90;;;;;;5063141;28;20227;-82
2022/01/05 12:36:08;;;;;;;9.27;8.97;;;3.40;99.90;;;;;;5063964;28;20214;-82
2022/01/05 12:38:45;;;;;;;9.07;8.80;;;3.20;99.90;;;;;;5063935;28;20237;-82
2022/01/05 12:41:39;;;;;;;9.17;8.90;;;3.20;99.90;;;;;;5052507;28;20227;-83
2022/01/05 12:44:35;;;;;;;9.07;8.80;;;3.40;99.90;;;;;;5049143;28;20228;-82
2022/01/05 12:47:05;;;;;;;9.20;8.90;;;3.40;99.90;;;;;;5040404;28;21015;-83
2022/01/05 12:49:34;;;;;;;9.27;8.97;;;3.40;99.90;;;;;;5042653;28;20235;-83
2022/01/05 12:52:14;;;;;;;9.20;8.90;;;3.40;99.90;;;;;;5047692;28;20227;-82
2022/01/05 12:54:45;;;;;;;8.73;8.53;;;3.30;99.90;;;;;;5052836;28;20251;-82
2022/01/05 12:57:21;;;;;;;9.00;8.80;;;3.20;99.90;;;;;;5058443;28;20208;-84
2022/01/05 12:59:52;;;;;;;8.70;8.50;;;3.20;99.90;;;;;;5062807;28;20258;-81
2022/01/05 13:02:29;;;;;;;8.90;8.70;;;3.20;99.90;;;;;;5078116;28;20219;-86
2022/01/05 13:05:00;;;;;;;8.50;8.30;;;3.20;99.90;;;;;;5064072;28;20238;-82
2022/01/05 13:07:32;;;;;;;8.50;8.30;;;3.20;99.90;;;;;;5049635;28;20251;-80
2022/01/05 13:10:05;;;;;;;8.70;8.50;;;3.20;99.90;;;;;;5058999;28;20235;-81
2022/01/05 13:12:34;;;;;;;8.70;8.50;;;3.20;99.90;;;;;;5065523;28;20217;-83
2022/01/05 13:15:07;;;;;;;8.60;8.40;;;3.10;99.90;;;;;;5060801;28;20281;-79
2022/01/05 13:17:42;;;;;;;8.77;8.57;;;3.10;99.90;;;;;;5066480;28;20230;-81
2022/01/05 13:20:13;;;;;;;8.70;8.50;;;3.10;99.90;;;;;;5066137;28;20226;-80
2022/01/05 13:22:51;;;;;;;8.70;8.50;;;3.10;99.90;;;;;;5066729;28;20230;-82
2022/01/05 13:28:10;;;;;;;8.53;8.33;;;2.90;99.90;;;;;;5049380;28;20219;-81
2022/01/05 13:30:39;;;;;;;8.60;8.40;;;2.90;99.90;;;;;;5044661;28;20239;-82
2022/01/05 13:33:16;;;;;;;8.87;8.67;;;2.90;99.90;;;;;;5045652;28;20246;-84
2022/01/05 13:35:45;;;;;;;8.60;8.40;;;2.90;99.90;;;;;;5052155;28;20318;-82
2022/01/05 13:38:23;;;;;;;8.40;8.20;;;2.80;99.90;;;;;;5048916;28;20235;-83
2022/01/05 13:40:54;;;;;;;8.77;8.57;;;2.80;99.90;;;;;;5049010;28;20238;-81
2022/01/05 13:43:25;;;;;;;8.70;8.50;;;2.80;99.90;;;;;;5050315;28;20253;-82